createdAt,value
2022-12-03T00:01:45.390Z,79.02
2022-12-03T00:06:47.358Z,79.43
2022-12-03T00:11:49.279Z,79.18
2022-12-03T00:16:51.246Z,79.37
2022-12-03T00:21:53.039Z,79.74
2022-12-03T00:26:55.044Z,79.46
2022-12-03T00:31:57.009Z,80.07
2022-12-03T00:36:58.928Z,79.85
2022-12-03T00:42:00.816Z,80.19
2022-12-03T00:47:02.844Z,80.31
2022-12-03T00:52:04.828Z,79.96
2022-12-03T00:57:06.675Z,79.87
2022-12-03T01:02:08.763Z,79.93
2022-12-03T01:07:10.453Z,79.49
2022-12-03T01:12:12.388Z,79.17
2022-12-03T01:17:14.285Z,79.41
2022-12-03T01:22:16.263Z,79.23
2022-12-03T01:27:18.236Z,79.43
2022-12-03T01:32:20.387Z,80.38
2022-12-03T01:37:24.336Z,80.42
2022-12-03T01:42:28.431Z,81.55
2022-12-03T01:47:36.972Z,81.21
2022-12-03T01:52:38.774Z,80.92
2022-12-03T01:57:48.604Z,81.36
2022-12-03T02:02:55.769Z,81.76
2022-12-03T02:07:57.880Z,82.34
2022-12-03T02:13:04.982Z,81.79
2022-12-03T02:18:08.274Z,82.30
2022-12-03T02:23:28.669Z,82.30
2022-12-03T02:28:30.576Z,82.34
2022-12-03T02:33:32.573Z,82.11
2022-12-03T02:38:34.401Z,81.79
2022-12-03T02:43:36.684Z,81.22
2022-12-03T02:48:39.119Z,82.26
2022-12-03T02:53:42.938Z,82.15
2022-12-03T02:58:45.327Z,81.52
2022-12-03T03:03:47.625Z,82.39
2022-12-03T03:08:49.513Z,82.65
2022-12-03T03:13:51.578Z,82.70
2022-12-03T03:18:53.194Z,82.58
2022-12-03T03:23:55.103Z,82.39
2022-12-03T03:28:56.950Z,82.20
2022-12-03T03:33:58.969Z,82.32
2022-12-03T03:39:00.615Z,82.46
2022-12-03T03:44:03.787Z,82.86
2022-12-03T03:49:05.764Z,82.42
2022-12-03T03:54:07.548Z,82.04
2022-12-03T03:59:09.518Z,82.22
2022-12-03T04:04:18.777Z,81.84
2022-12-03T04:09:20.664Z,82.42
2022-12-03T04:14:22.740Z,81.85
2022-12-03T04:19:24.334Z,81.57
2022-12-03T04:24:26.217Z,81.93
2022-12-03T04:29:28.018Z,82.54
2022-12-03T04:34:30.152Z,82.15
2022-12-03T04:39:31.977Z,81.87
2022-12-03T04:44:34.145Z,82.22
2022-12-03T04:49:37.265Z,81.80
2022-12-03T04:54:39.471Z,82.09
2022-12-03T04:59:41.269Z,81.99
2022-12-03T05:04:43.222Z,81.50
2022-12-03T05:09:45.810Z,81.60
2022-12-03T05:14:47.891Z,81.71
2022-12-03T05:19:49.547Z,81.90
2022-12-03T05:24:51.800Z,81.12
2022-12-03T05:29:54.056Z,82.01
2022-12-03T05:34:56.684Z,81.86
2022-12-03T05:39:58.823Z,81.81
2022-12-03T05:45:00.680Z,82.44
2022-12-03T05:50:02.594Z,82.84
2022-12-03T05:55:05.606Z,82.54
2022-12-03T06:00:09.860Z,82.07
2022-12-03T06:05:12.186Z,81.74
2022-12-03T06:10:15.283Z,81.20
2022-12-03T06:15:17.395Z,80.70
2022-12-03T06:20:19.591Z,80.47
2022-12-03T06:25:21.507Z,79.99
2022-12-03T06:30:23.329Z,79.54
2022-12-03T06:35:25.199Z,79.25
2022-12-03T06:40:27.088Z,78.92
2022-12-03T06:45:29.113Z,78.67
2022-12-03T06:50:31.141Z,78.74
2022-12-03T06:55:33.992Z,77.64
2022-12-03T07:00:35.885Z,78.14
2022-12-03T07:05:37.837Z,78.23
2022-12-03T07:10:39.704Z,77.52
2022-12-03T07:15:41.729Z,77.36
2022-12-03T07:20:43.593Z,77.60
2022-12-03T07:25:45.472Z,77.22
2022-12-03T07:30:47.510Z,76.44
2022-12-03T07:35:49.337Z,76.52
2022-12-03T07:40:52.519Z,76.34
2022-12-03T07:45:54.415Z,76.79
2022-12-03T07:50:56.256Z,76.48
2022-12-03T07:55:58.229Z,75.64
2022-12-03T08:01:00.186Z,75.53
2022-12-03T08:06:02.227Z,75.15
2022-12-03T08:11:05.555Z,75.25
2022-12-03T08:16:19.924Z,75.08
2022-12-03T08:21:23.146Z,75.03
2022-12-03T08:26:27.995Z,74.33
2022-12-03T08:31:33.617Z,74.55
2022-12-03T08:36:36.821Z,74.70
2022-12-03T08:41:38.939Z,75.14
2022-12-03T08:46:40.781Z,75.64
2022-12-03T08:51:42.563Z,75.37
2022-12-03T08:56:44.428Z,75.47
2022-12-03T09:01:46.870Z,75.80
2022-12-03T09:06:49.505Z,74.63
2022-12-03T09:11:52.080Z,75.30
2022-12-03T09:16:54.107Z,75.48
2022-12-03T09:21:55.963Z,74.98
2022-12-03T09:26:57.888Z,75.44
2022-12-03T09:31:59.763Z,75.33
2022-12-03T09:37:01.837Z,75.88
2022-12-03T09:42:03.774Z,75.37
2022-12-03T09:47:05.724Z,75.51
2022-12-03T09:52:07.800Z,75.97
2022-12-03T09:57:10.114Z,75.51
2022-12-03T10:02:21.425Z,75.53
2022-12-03T10:07:24.484Z,75.93
2022-12-03T10:12:26.343Z,76.98
2022-12-03T10:17:28.443Z,76.65
2022-12-03T10:22:30.499Z,76.80
2022-12-03T10:27:32.554Z,76.21
2022-12-03T10:32:47.816Z,76.45
2022-12-03T10:38:03.563Z,77.19
2022-12-03T10:43:18.480Z,78.10
2022-12-03T10:48:21.862Z,77.72
2022-12-03T10:53:26.998Z,77.97
2022-12-03T10:58:31.365Z,78.10
2022-12-03T11:03:36.529Z,77.93
2022-12-03T11:08:38.685Z,77.79
2022-12-03T11:13:40.526Z,78.23
2022-12-03T11:18:42.637Z,78.26
2022-12-03T11:23:44.644Z,78.91
2022-12-03T11:28:46.574Z,79.12
2022-12-03T11:33:48.408Z,79.29
2022-12-03T11:38:53.578Z,78.08
2022-12-03T11:43:55.622Z,78.16
2022-12-03T11:48:58.986Z,78.32
2022-12-03T11:54:00.832Z,78.50
2022-12-03T11:59:03.970Z,78.61
2022-12-03T12:04:06.310Z,78.62
2022-12-03T12:09:08.542Z,79.15
2022-12-03T12:14:11.956Z,78.93
2022-12-03T12:19:35.673Z,78.88
2022-12-03T12:24:40.622Z,79.59
2022-12-03T12:29:43.574Z,80.06
2022-12-03T12:34:49.322Z,79.52
2022-12-03T12:39:53.483Z,79.79
2022-12-03T12:45:00.100Z,80.34
2022-12-03T12:50:02.111Z,80.88
2022-12-03T12:55:07.262Z,81.38
2022-12-03T13:00:20.602Z,81.46
2022-12-03T13:05:23.325Z,81.51
2022-12-03T13:10:40.944Z,81.51
2022-12-03T13:15:47.974Z,81.78
2022-12-03T13:20:50.951Z,81.86
2022-12-03T13:26:09.259Z,81.80
2022-12-03T13:31:21.760Z,82.39
2022-12-03T13:36:29.856Z,82.07
2022-12-03T13:41:31.725Z,82.44
2022-12-03T13:46:33.662Z,82.97
2022-12-03T13:51:35.929Z,82.95
2022-12-03T13:56:37.877Z,82.56
2022-12-03T14:01:39.891Z,83.68
2022-12-03T14:06:41.979Z,83.52
2022-12-03T14:11:44.255Z,83.74
2022-12-03T14:16:46.164Z,83.33
2022-12-03T14:21:48.245Z,83.84
2022-12-03T14:26:50.156Z,83.66
2022-12-03T14:31:52.227Z,83.58
2022-12-03T14:36:54.538Z,84.23
2022-12-03T14:41:56.576Z,84.52
2022-12-03T14:46:58.472Z,84.42
2022-12-03T14:52:00.232Z,84.51
2022-12-03T14:57:02.264Z,84.30
2022-12-03T15:02:05.527Z,84.88
2022-12-03T15:07:08.497Z,85.64
2022-12-03T15:12:10.412Z,85.26
2022-12-03T15:17:12.689Z,85.22
2022-12-03T15:22:14.587Z,85.77
2022-12-03T15:27:16.476Z,85.71
2022-12-03T15:32:18.296Z,85.98
2022-12-03T15:37:20.602Z,85.78
2022-12-03T15:42:22.475Z,85.14
2022-12-03T15:47:24.499Z,85.14
2022-12-03T15:52:26.392Z,84.74
2022-12-03T15:57:28.258Z,84.19
2022-12-03T16:02:30.093Z,84.61
2022-12-03T16:07:32.556Z,84.50
2022-12-03T16:12:34.477Z,84.98
2022-12-03T16:17:36.362Z,85.17
2022-12-03T16:22:38.274Z,84.96
2022-12-03T16:27:40.209Z,84.93
2022-12-03T16:32:42.108Z,85.64
2022-12-03T16:37:43.957Z,85.64
2022-12-03T16:42:45.798Z,85.32
2022-12-03T16:47:47.733Z,85.18
2022-12-03T16:52:49.739Z,84.65
2022-12-03T16:57:51.603Z,85.39
2022-12-03T17:02:53.810Z,85.18
2022-12-03T17:07:55.722Z,85.57
2022-12-03T17:13:12.964Z,84.18
2022-12-03T17:18:14.725Z,83.53
2022-12-03T17:23:16.566Z,81.85
2022-12-03T17:28:18.378Z,81.82
2022-12-03T17:33:20.174Z,81.71
2022-12-03T17:38:22.178Z,81.15
2022-12-03T17:43:24.155Z,81.29
2022-12-03T17:48:29.134Z,81.21
2022-12-03T17:53:31.100Z,81.74
2022-12-03T17:58:34.693Z,81.51
2022-12-03T18:03:37.144Z,81.80
2022-12-03T18:08:39.433Z,81.31
2022-12-03T18:13:42.383Z,81.06
2022-12-03T18:18:44.223Z,81.38
2022-12-03T18:23:46.216Z,82.10
2022-12-03T18:28:48.012Z,82.47
2022-12-03T18:33:51.158Z,82.94
2022-12-03T18:38:53.842Z,83.14
2022-12-03T18:43:57.244Z,83.47
2022-12-03T18:49:02.683Z,83.21
2022-12-03T18:54:05.038Z,82.75
2022-12-03T18:59:07.367Z,82.67
2022-12-03T19:04:10.031Z,82.08
2022-12-03T19:09:11.857Z,82.74
2022-12-03T19:14:13.648Z,83.25
2022-12-03T19:19:15.584Z,83.61
2022-12-03T19:24:25.565Z,84.24
2022-12-03T19:29:27.764Z,84.63
2022-12-03T19:34:29.503Z,84.93
2022-12-03T19:39:31.394Z,84.35
2022-12-03T19:44:33.480Z,84.93
2022-12-03T19:49:35.567Z,84.79
2022-12-03T19:54:37.405Z,85.36
2022-12-03T19:59:39.268Z,85.50
2022-12-03T20:04:41.146Z,85.07
2022-12-03T20:09:44.189Z,85.53
2022-12-03T20:14:46.036Z,84.90
2022-12-03T20:19:48.025Z,84.75
2022-12-03T20:24:49.856Z,85.77
2022-12-03T20:29:51.865Z,84.77
2022-12-03T20:34:53.930Z,84.58
2022-12-03T20:39:56.159Z,84.27
2022-12-03T20:44:58.018Z,84.32
2022-12-03T20:49:59.936Z,84.13
2022-12-03T20:55:01.840Z,83.93
2022-12-03T21:00:04.169Z,83.19
2022-12-03T21:05:06.703Z,82.68
2022-12-03T21:10:08.619Z,81.89
2022-12-03T21:15:10.677Z,81.39
2022-12-03T21:20:16.603Z,81.68
2022-12-03T21:25:21.279Z,81.34
2022-12-03T21:30:23.407Z,81.28
2022-12-03T21:35:25.566Z,80.92
2022-12-03T21:40:27.447Z,80.65
2022-12-03T21:45:29.304Z,80.89
2022-12-03T21:50:31.161Z,80.91
2022-12-03T21:55:33.076Z,81.15
2022-12-03T22:00:35.149Z,81.04
2022-12-03T22:05:39.739Z,80.93
2022-12-03T22:10:41.595Z,80.69
2022-12-03T22:15:43.579Z,80.25
2022-12-03T22:20:45.421Z,80.59
2022-12-03T22:25:47.277Z,81.13
2022-12-03T22:30:49.191Z,81.37
2022-12-03T22:35:58.178Z,81.43
2022-12-03T22:41:00.214Z,81.41
2022-12-03T22:46:02.099Z,81.20
2022-12-03T22:51:04.317Z,81.16
2022-12-03T22:56:06.596Z,80.61
2022-12-03T23:01:08.611Z,80.20
2022-12-03T23:06:11.256Z,79.22
2022-12-03T23:11:13.137Z,79.09
2022-12-03T23:16:23.374Z,79.04
2022-12-03T23:21:29.890Z,78.26
2022-12-03T23:26:34.848Z,78.22
2022-12-03T23:31:36.754Z,78.43
2022-12-03T23:36:38.630Z,77.45
2022-12-03T23:41:40.479Z,77.12
2022-12-03T23:46:42.425Z,77.25
2022-12-03T23:51:44.477Z,78.27
2022-12-03T23:56:46.291Z,80.06
